Terminal Aerodrome Forecast
Issued by NWS

Home | Current Version | Previous Version | Text Only | Print | Product List | Glossary On
Versions: 1 2 3 4 5 6 7 8 9 10 11 12 13 14 15
000
FTUS46 KSEW 171300 AAB
TAFOLM
TAF AMD
KOLM 171333Z 1714/1812 00000KT P6SM MIFG VCSH SCT080 BKN120
      TEMPO 1714/1715 3SM MIFG SCT001 SCT080 BKN120
     FM171500 00000KT P6SM VCSH SCT080 BKN120
     FM171900 VRB04KT P6SM VCSH SCT050 OVC100
     FM180900 00000KT P6SM VCSH BKN050 OVC090=

USA.gov is the U.S. government's official web portal to all federal, state and local government web resources and services.